createdAt,value
2017-05-12T00:00:12.625Z,64.53
2017-05-12T00:00:53.272Z,64.81
2017-05-12T00:01:33.870Z,64.53
2017-05-12T00:02:14.509Z,64.72
2017-05-12T00:02:55.129Z,64.72
2017-05-12T00:03:35.685Z,64.62
2017-05-12T00:04:16.267Z,64.25
2017-05-12T00:04:56.861Z,64.72
2017-05-12T00:05:37.436Z,64.81
2017-05-12T00:06:18.042Z,64.72
2017-05-12T00:06:58.610Z,65.3
2017-05-12T00:07:39.192Z,65.3
2017-05-12T00:08:19.776Z,65.1
2017-05-12T00:09:00.354Z,65.2
2017-05-12T00:09:40.966Z,65.2
2017-05-12T00:10:21.528Z,65.39
2017-05-12T00:11:02.113Z,65.3
2017-05-12T00:11:42.725Z,65.58
2017-05-12T00:12:23.342Z,65.58
2017-05-12T00:13:03.923Z,65.39
2017-05-12T00:13:44.488Z,65.3
2017-05-12T00:14:25.061Z,65.77
2017-05-12T00:15:05.632Z,66.06
2017-05-12T00:15:46.229Z,65.58
2017-05-12T00:16:26.810Z,65.87
2017-05-12T00:17:07.422Z,66.35
2017-05-12T00:17:48.038Z,66.12
2017-05-12T00:18:28.690Z,66.06
2017-05-12T00:19:09.272Z,65.87
2017-05-12T00:19:49.843Z,66.12
2017-05-12T00:20:30.427Z,66.12
2017-05-12T00:21:11.034Z,66.12
2017-05-12T00:21:51.615Z,65.83
2017-05-12T00:22:32.221Z,65.87
2017-05-12T00:23:12.783Z,65.83
2017-05-12T00:23:53.408Z,65.83
2017-05-12T00:24:34.043Z,65.83
2017-05-12T00:25:14.651Z,66.12
2017-05-12T00:25:55.244Z,66.31
2017-05-12T00:26:35.842Z,66.41
2017-05-12T00:27:16.434Z,66.5
2017-05-12T00:27:57.012Z,66.5
2017-05-12T00:28:37.611Z,66.41
2017-05-12T00:29:18.174Z,66.41
2017-05-12T00:29:58.758Z,66.6
2017-05-12T00:30:39.353Z,66.6
2017-05-12T00:31:19.939Z,66.6
2017-05-12T00:32:00.538Z,66.69
2017-05-12T00:32:41.136Z,66.5
2017-05-12T00:33:21.746Z,66.78
2017-05-12T00:34:02.352Z,66.78
2017-05-12T00:34:42.945Z,66.78
2017-05-12T00:35:23.540Z,66.5
2017-05-12T00:36:04.149Z,66.98
2017-05-12T00:36:44.754Z,67.07
2017-05-12T00:37:25.339Z,66.98
2017-05-12T00:38:05.941Z,66.88
2017-05-12T00:38:46.493Z,67.07
2017-05-12T00:39:27.055Z,67.07
2017-05-12T00:40:07.650Z,67.27
2017-05-12T00:40:48.255Z,67.27
2017-05-12T00:41:28.839Z,67.36
2017-05-12T00:42:09.434Z,67.65
2017-05-12T00:42:50.006Z,67.27
2017-05-12T00:43:30.575Z,67.55
2017-05-12T00:44:11.207Z,67.27
2017-05-12T00:44:51.783Z,67.46
2017-05-12T00:45:32.392Z,67.46
2017-05-12T00:46:12.982Z,67.27
2017-05-12T00:46:53.586Z,67.36
2017-05-12T00:47:34.182Z,67.46
2017-05-12T00:48:14.776Z,67.27
2017-05-12T00:48:55.421Z,67.27
2017-05-12T00:49:36.055Z,67.65
2017-05-12T00:50:16.627Z,67.83
2017-05-12T00:50:57.200Z,67.83
2017-05-12T00:51:37.795Z,67.93
2017-05-12T00:52:18.395Z,67.83
2017-05-12T00:52:58.969Z,68.03
2017-05-12T00:53:39.550Z,67.93
2017-05-12T00:54:20.133Z,67.74
2017-05-12T00:55:00.724Z,67.93
2017-05-12T00:55:41.309Z,67.93
2017-05-12T00:56:21.892Z,67.93
2017-05-12T00:57:02.530Z,68.51
2017-05-12T00:57:43.133Z,68.32
2017-05-12T00:58:23.715Z,68.41
2017-05-12T00:59:04.299Z,68.41
2017-05-12T00:59:44.882Z,68.41
2017-05-12T01:00:25.500Z,68.09
2017-05-12T01:01:06.244Z,68.12
2017-05-12T01:01:46.779Z,68.57
2017-05-12T01:02:27.428Z,68.28
2017-05-12T01:03:08.022Z,68.66
2017-05-12T01:03:48.596Z,68.85
2017-05-12T01:04:29.184Z,68.85
2017-05-12T01:05:09.772Z,69.04
2017-05-12T01:05:50.357Z,68.79
2017-05-12T01:06:30.972Z,68.76
2017-05-12T01:07:11.614Z,68.76
2017-05-12T01:07:52.211Z,68.95
2017-05-12T01:08:32.840Z,68.95
2017-05-12T01:09:13.421Z,68.57
2017-05-12T01:09:54.057Z,68.76
2017-05-12T01:10:34.625Z,68.66
2017-05-12T01:11:15.207Z,68.95
2017-05-12T01:11:55.799Z,68.76
2017-05-12T01:12:36.377Z,68.95
2017-05-12T01:13:16.953Z,68.76
2017-05-12T01:13:57.517Z,68.95
2017-05-12T01:14:38.128Z,68.95
2017-05-12T01:15:18.697Z,68.95
2017-05-12T01:15:59.275Z,68.95
2017-05-12T01:16:39.894Z,69.52
2017-05-12T01:17:20.472Z,68.85
2017-05-12T01:18:01.051Z,69.52
2017-05-12T01:18:41.610Z,69.04
2017-05-12T01:19:22.187Z,69.23
2017-05-12T01:20:02.763Z,68.95
2017-05-12T01:20:43.334Z,69.23
2017-05-12T01:21:23.999Z,69.04
2017-05-12T01:22:04.608Z,69.04
2017-05-12T01:22:45.199Z,68.85
2017-05-12T01:23:25.786Z,68.95
2017-05-12T01:24:06.410Z,69.04
2017-05-12T01:24:46.953Z,68.95
2017-05-12T01:25:27.567Z,68.66
2017-05-12T01:26:08.156Z,68.85
2017-05-12T01:26:48.735Z,69.33
2017-05-12T01:27:29.332Z,69.04
2017-05-12T01:28:09.923Z,69.43
2017-05-12T01:28:50.519Z,69.52
2017-05-12T01:29:31.125Z,69.33
2017-05-12T01:30:11.701Z,69.14
2017-05-12T01:30:52.300Z,69.52
2017-05-12T01:31:32.872Z,69.14
2017-05-12T01:32:13.444Z,69.52
2017-05-12T01:32:54.052Z,69.52
2017-05-12T01:33:34.660Z,69.81
2017-05-12T01:34:15.253Z,69.33
2017-05-12T01:34:55.846Z,69.81
2017-05-12T01:35:36.459Z,69.9
2017-05-12T01:36:17.056Z,69.62
2017-05-12T01:36:57.620Z,69.81
2017-05-12T01:37:38.220Z,70.28
2017-05-12T01:38:18.813Z,70.57
2017-05-12T01:38:59.416Z,70.28
2017-05-12T01:39:40.016Z,70.09
2017-05-12T01:40:20.658Z,70.19
2017-05-12T01:41:01.238Z,70.19
2017-05-12T01:41:41.820Z,70.09
2017-05-12T01:42:22.408Z,70.09
2017-05-12T01:43:02.973Z,70
2017-05-12T01:43:43.589Z,70.19
2017-05-12T01:44:24.167Z,70.19
2017-05-12T01:45:04.778Z,70.28
2017-05-12T01:45:45.353Z,70.09
2017-05-12T01:46:25.941Z,70.67
2017-05-12T01:47:06.541Z,70.28
2017-05-12T01:47:47.130Z,70.47
2017-05-12T01:48:27.767Z,70.57
2017-05-12T01:49:08.344Z,70.38
2017-05-12T01:49:48.976Z,70.47
2017-05-12T01:50:29.546Z,70
2017-05-12T01:51:10.130Z,70.28
2017-05-12T01:51:50.727Z,70.38
2017-05-12T01:52:31.306Z,70.38
2017-05-12T01:53:11.901Z,70.47
2017-05-12T01:53:52.482Z,70.57
2017-05-12T01:54:33.091Z,70.19
2017-05-12T01:55:13.672Z,70.57
2017-05-12T01:55:54.265Z,70.95
2017-05-12T01:56:34.853Z,70.86
2017-05-12T01:57:15.426Z,70.95
2017-05-12T01:57:56.015Z,70.95
2017-05-12T01:58:36.595Z,70.76
2017-05-12T01:59:17.167Z,70.67
2017-05-12T01:59:57.775Z,70.76
2017-05-12T02:00:38.358Z,70.76
2017-05-12T02:01:18.945Z,70.76
2017-05-12T02:01:59.512Z,70.95
2017-05-12T02:02:40.087Z,71.11
2017-05-12T02:03:20.659Z,70.57
2017-05-12T02:04:01.252Z,70.57
2017-05-12T02:04:41.835Z,70.82
2017-05-12T02:05:22.415Z,70.67
2017-05-12T02:06:03.014Z,70.72
2017-05-12T02:06:43.620Z,71.01
2017-05-12T02:07:24.209Z,71.11
2017-05-12T02:08:04.780Z,71.01
2017-05-12T02:08:45.361Z,71.01
2017-05-12T02:09:25.958Z,70.92
2017-05-12T02:10:06.531Z,70.86
2017-05-12T02:10:47.117Z,70.82
2017-05-12T02:11:27.718Z,71.11
2017-05-12T02:12:08.300Z,70.92
2017-05-12T02:12:48.885Z,71.33
2017-05-12T02:13:29.561Z,70.86
2017-05-12T02:14:10.177Z,70.92
2017-05-12T02:14:50.782Z,70.92
2017-05-12T02:15:31.422Z,71.01
2017-05-12T02:16:12.038Z,70.92
2017-05-12T02:16:52.650Z,71.14
2017-05-12T02:17:33.208Z,71.39
2017-05-12T02:18:13.828Z,71.39
2017-05-12T02:18:54.409Z,71.3
2017-05-12T02:19:34.995Z,71.3
2017-05-12T02:20:15.603Z,71.39
2017-05-12T02:20:56.207Z,71.39
2017-05-12T02:21:36.807Z,71.68
2017-05-12T02:22:17.409Z,71.48
2017-05-12T02:22:58.016Z,71.48
2017-05-12T02:23:38.613Z,71.58
2017-05-12T02:24:19.167Z,71.58
2017-05-12T02:24:59.770Z,71.58
2017-05-12T02:25:40.357Z,71.48
2017-05-12T02:26:21.014Z,71.58
2017-05-12T02:27:01.632Z,71.39
2017-05-12T02:27:42.227Z,71.68
2017-05-12T02:28:22.832Z,71.68
2017-05-12T02:29:03.421Z,71.68
2017-05-12T02:29:44.048Z,71.77
2017-05-12T02:30:24.631Z,71.96
2017-05-12T02:31:05.213Z,72.16
2017-05-12T02:31:45.810Z,72.16
2017-05-12T02:32:26.917Z,72.16
2017-05-12T02:33:07.271Z,72.25
2017-05-12T02:33:47.855Z,72.25
2017-05-12T02:34:28.538Z,72.06
2017-05-12T02:35:09.154Z,72.06
2017-05-12T02:35:49.751Z,71.87
2017-05-12T02:36:30.316Z,71.87
2017-05-12T02:37:10.888Z,72.06
2017-05-12T02:37:51.471Z,72.34
2017-05-12T02:38:32.037Z,71.87
2017-05-12T02:39:12.615Z,72.06
2017-05-12T02:39:53.236Z,71.87
2017-05-12T02:40:33.809Z,71.96
2017-05-12T02:41:14.423Z,71.87
2017-05-12T02:41:55.003Z,72.06
2017-05-12T02:42:35.582Z,72.25
2017-05-12T02:43:16.198Z,72.25
2017-05-12T02:43:56.778Z,72.06
2017-05-12T02:44:37.360Z,71.96
2017-05-12T02:45:17.951Z,71.96
2017-05-12T02:45:58.536Z,72.72
2017-05-12T02:46:39.121Z,72.25
2017-05-12T02:47:19.709Z,72.16
2017-05-12T02:48:00.289Z,71.96
2017-05-12T02:48:40.891Z,72.25
2017-05-12T02:49:21.489Z,72.25
2017-05-12T02:50:02.134Z,72.06
2017-05-12T02:50:42.808Z,72.53
2017-05-12T02:51:23.396Z,72.63
2017-05-12T02:52:03.975Z,72.44
2017-05-12T02:52:44.575Z,72.06
2017-05-12T02:53:25.188Z,72.16
2017-05-12T02:54:05.768Z,72.25
2017-05-12T02:54:46.348Z,72.06
2017-05-12T02:55:26.915Z,72.25
2017-05-12T02:56:07.519Z,72.63
2017-05-12T02:56:48.103Z,72.16
2017-05-12T02:57:28.693Z,72.34
2017-05-12T02:58:09.277Z,72.16
2017-05-12T02:58:49.894Z,72.63
2017-05-12T02:59:30.513Z,72.63
2017-05-12T03:00:11.187Z,72.72
2017-05-12T03:00:51.758Z,73.11
2017-05-12T03:01:32.359Z,72.82
2017-05-12T03:02:12.934Z,72.92
2017-05-12T03:02:53.513Z,72.25
2017-05-12T03:03:34.102Z,72.44
2017-05-12T03:04:14.682Z,72.41
2017-05-12T03:04:55.263Z,72.63
2017-05-12T03:05:35.848Z,72.72
2017-05-12T03:06:16.427Z,72.63
2017-05-12T03:06:57.020Z,72.34
2017-05-12T03:07:37.624Z,72.63
2017-05-12T03:08:18.240Z,72.53
2017-05-12T03:08:58.835Z,72.44
2017-05-12T03:09:39.411Z,72.44
2017-05-12T03:10:20.006Z,72.63
2017-05-12T03:11:00.601Z,72.44
2017-05-12T03:11:41.193Z,72.72
2017-05-12T03:12:21.791Z,72.34
2017-05-12T03:13:02.397Z,72.92
2017-05-12T03:13:43.029Z,72.63
2017-05-12T03:14:23.635Z,72.53
2017-05-12T03:15:04.212Z,72.53
2017-05-12T03:15:44.761Z,72.53
2017-05-12T03:16:25.361Z,72.41
2017-05-12T03:17:05.944Z,72.5
2017-05-12T03:17:46.562Z,72.5
2017-05-12T03:18:27.155Z,72.31
2017-05-12T03:19:07.761Z,72.31
2017-05-12T03:19:48.346Z,72.5
2017-05-12T03:20:28.918Z,72.78
2017-05-12T03:21:09.509Z,72.88
2017-05-12T03:21:50.072Z,72.97
2017-05-12T03:22:30.675Z,72.78
2017-05-12T03:23:11.282Z,72.78
2017-05-12T03:23:51.842Z,72.6
2017-05-12T03:24:32.470Z,72.6
2017-05-12T03:25:13.068Z,72.78
2017-05-12T03:25:53.704Z,72.88
2017-05-12T03:26:34.298Z,72.88
2017-05-12T03:27:14.879Z,72.97
2017-05-12T03:27:55.479Z,72.88
2017-05-12T03:28:36.089Z,73.36
2017-05-12T03:29:16.652Z,73.17
2017-05-12T03:29:57.232Z,73.17
2017-05-12T03:30:37.803Z,72.97
2017-05-12T03:31:18.372Z,73.17
2017-05-12T03:31:58.963Z,73.07
2017-05-12T03:32:39.540Z,73.17
2017-05-12T03:33:20.113Z,72.88
2017-05-12T03:34:00.712Z,72.88
2017-05-12T03:34:41.282Z,72.88
2017-05-12T03:35:21.867Z,72.6
2017-05-12T03:36:02.457Z,72.88
2017-05-12T03:36:43.037Z,72.88
2017-05-12T03:37:23.633Z,72.97
2017-05-12T03:38:04.215Z,72.88
2017-05-12T03:38:44.813Z,73.17
2017-05-12T03:39:25.377Z,72.97
2017-05-12T03:40:05.960Z,72.6
2017-05-12T03:40:46.656Z,73.17
2017-05-12T03:41:27.275Z,73.65
2017-05-12T03:42:07.876Z,73.55
2017-05-12T03:42:48.486Z,73.45
2017-05-12T03:43:29.082Z,73.45
2017-05-12T03:44:09.661Z,73.36
2017-05-12T03:44:50.298Z,73.93
2017-05-12T03:45:30.906Z,73.93
2017-05-12T03:46:11.497Z,73.93
2017-05-12T03:46:52.090Z,73.55
2017-05-12T03:47:32.684Z,74.02
2017-05-12T03:48:13.273Z,73.93
2017-05-12T03:48:53.868Z,73.83
2017-05-12T03:49:34.455Z,73.74
2017-05-12T03:50:15.046Z,73.93
2017-05-12T03:50:55.623Z,73.93
2017-05-12T03:51:36.190Z,73.65
2017-05-12T03:52:16.768Z,73.65
2017-05-12T03:52:57.342Z,73.83
2017-05-12T03:53:37.932Z,73.74
2017-05-12T03:54:18.557Z,73.74
2017-05-12T03:54:59.192Z,74.02
2017-05-12T03:55:39.819Z,73.83
2017-05-12T03:56:20.393Z,73.83
2017-05-12T03:57:00.997Z,73.55
2017-05-12T03:57:41.601Z,74.21
2017-05-12T03:58:22.234Z,74.02
2017-05-12T03:59:02.782Z,74.02
2017-05-12T03:59:44.341Z,74.12
2017-05-12T04:00:25.825Z,74.12
2017-05-12T04:01:06.401Z,74.5
2017-05-12T04:01:47.033Z,74.12
2017-05-12T04:02:27.711Z,73.93
2017-05-12T04:03:08.288Z,74.02
2017-05-12T04:03:48.877Z,74.21
2017-05-12T04:04:29.448Z,74.21
2017-05-12T04:05:10.022Z,74.31
2017-05-12T04:05:50.601Z,74.4
2017-05-12T04:06:31.283Z,74.02
2017-05-12T04:07:11.853Z,73.74
2017-05-12T04:07:52.475Z,74.02
2017-05-12T04:08:33.062Z,73.83
2017-05-12T04:09:13.653Z,74.02
2017-05-12T04:09:54.227Z,74.02
2017-05-12T04:10:34.831Z,74.02
2017-05-12T04:11:15.436Z,74.12
2017-05-12T04:11:56.024Z,74.4
2017-05-12T04:12:36.616Z,74.4
2017-05-12T04:13:17.194Z,74.5
2017-05-12T04:13:57.776Z,74.02
2017-05-12T04:14:38.400Z,74.02
2017-05-12T04:15:19.000Z,73.93
2017-05-12T04:15:59.676Z,73.65
2017-05-12T04:16:40.224Z,73.83
2017-05-12T04:17:20.807Z,73.93
2017-05-12T04:18:01.419Z,73.83
2017-05-12T04:18:41.999Z,73.83
2017-05-12T04:19:22.576Z,73.83
2017-05-12T04:20:03.149Z,74.6
2017-05-12T04:20:43.748Z,74.6
2017-05-12T04:21:24.359Z,74.31
2017-05-12T04:22:04.924Z,74.4
2017-05-12T04:22:45.500Z,74.6
2017-05-12T04:23:26.132Z,74.21
2017-05-12T04:24:06.718Z,73.93
2017-05-12T04:24:47.323Z,74.5
2017-05-12T04:25:27.923Z,74.31
2017-05-12T04:26:08.501Z,73.93
2017-05-12T04:26:49.126Z,73.74
2017-05-12T04:27:29.700Z,74.02
2017-05-12T04:28:10.309Z,74.02
2017-05-12T04:28:50.904Z,74.31
2017-05-12T04:29:31.491Z,73.93
2017-05-12T04:30:12.076Z,74.21
2017-05-12T04:30:52.663Z,73.83
2017-05-12T04:31:33.265Z,73.74
2017-05-12T04:32:13.844Z,73.55
2017-05-12T04:32:54.432Z,73.83
2017-05-12T04:33:34.998Z,73.83
2017-05-12T04:34:15.564Z,73.74
2017-05-12T04:34:56.165Z,73.83
2017-05-12T04:35:36.785Z,73.93
2017-05-12T04:36:17.421Z,73.93
2017-05-12T04:36:58.026Z,74.02
2017-05-12T04:37:38.618Z,74.02
2017-05-12T04:38:19.216Z,74.4
2017-05-12T04:38:59.781Z,74.21
2017-05-12T04:39:40.409Z,73.83
2017-05-12T04:40:20.987Z,74.02
2017-05-12T04:41:01.574Z,73.83
2017-05-12T04:41:42.152Z,73.83
2017-05-12T04:42:22.737Z,73.55
2017-05-12T04:43:03.333Z,73.65
2017-05-12T04:43:43.918Z,73.65
2017-05-12T04:44:24.505Z,73.93
2017-05-12T04:45:05.060Z,73.83
2017-05-12T04:45:45.683Z,73.65
2017-05-12T04:46:26.316Z,73.45
2017-05-12T04:47:06.909Z,73.55
2017-05-12T04:47:47.541Z,73.45
2017-05-12T04:48:28.138Z,73.65
2017-05-12T04:49:08.730Z,73.26
2017-05-12T04:49:49.327Z,73.65
2017-05-12T04:50:29.906Z,73.55
2017-05-12T04:51:10.491Z,73.68
2017-05-12T04:51:51.084Z,73.65
2017-05-12T04:52:31.683Z,73.36
2017-05-12T04:53:12.277Z,73.65
2017-05-12T04:53:52.886Z,73.65
2017-05-12T04:54:33.474Z,73.65
2017-05-12T04:55:14.069Z,73.65
2017-05-12T04:55:54.642Z,73.74
2017-05-12T04:56:35.243Z,74.02
2017-05-12T04:57:15.840Z,73.36
2017-05-12T04:57:56.439Z,73.45
2017-05-12T04:58:37.041Z,73.65
2017-05-12T04:59:17.641Z,73.36
2017-05-12T04:59:58.234Z,73.45
2017-05-12T05:00:38.808Z,74.12
2017-05-12T05:01:19.385Z,74.12
2017-05-12T05:01:59.960Z,73.93
2017-05-12T05:02:40.531Z,73.93
2017-05-12T05:03:21.137Z,73.65
2017-05-12T05:04:01.722Z,73.93
2017-05-12T05:04:42.309Z,73.93
2017-05-12T05:05:22.888Z,73.68
2017-05-12T05:06:03.469Z,73.58
2017-05-12T05:06:44.057Z,73.58
2017-05-12T05:07:24.653Z,73.49
2017-05-12T05:08:05.237Z,73.68
2017-05-12T05:08:45.837Z,73.39
2017-05-12T05:09:26.433Z,73.11
2017-05-12T05:10:07.046Z,72.92
2017-05-12T05:10:47.708Z,72.82
2017-05-12T05:11:28.228Z,72.92
2017-05-12T05:12:08.849Z,73.01
2017-05-12T05:12:49.435Z,73.01
2017-05-12T05:13:30.017Z,73.39
2017-05-12T05:14:10.605Z,72.44
2017-05-12T05:14:51.191Z,72.44
2017-05-12T05:15:31.803Z,72.92
2017-05-12T05:16:12.398Z,73.11
2017-05-12T05:16:52.984Z,72.53
2017-05-12T05:17:33.558Z,72.44
2017-05-12T05:18:14.147Z,72.44
2017-05-12T05:18:54.753Z,72.63
2017-05-12T05:19:35.348Z,72.63
2017-05-12T05:20:15.952Z,72.72
2017-05-12T05:20:56.526Z,72.34
2017-05-12T05:21:37.107Z,72.53
2017-05-12T05:22:17.672Z,72.63
2017-05-12T05:22:58.325Z,72.53
2017-05-12T05:23:38.940Z,72.44
2017-05-12T05:24:19.550Z,72.82
2017-05-12T05:25:00.135Z,72.72
2017-05-12T05:25:40.801Z,72.44
2017-05-12T05:26:21.382Z,72.34
2017-05-12T05:27:02.021Z,72.72
2017-05-12T05:27:42.619Z,72.82
2017-05-12T05:28:23.232Z,73.11
2017-05-12T05:29:03.825Z,72.34
2017-05-12T05:29:44.443Z,72.63
2017-05-12T05:30:25.015Z,72.72
2017-05-12T05:31:05.685Z,72.63
2017-05-12T05:31:46.310Z,72.44
2017-05-12T05:32:26.919Z,72.72
2017-05-12T05:33:07.509Z,72.25
2017-05-12T05:33:48.088Z,72.44
2017-05-12T05:34:28.680Z,72.25
2017-05-12T05:35:09.311Z,72.82
2017-05-12T05:35:49.919Z,72.63
2017-05-12T05:36:30.521Z,72.44
2017-05-12T05:37:11.106Z,72.63
2017-05-12T05:37:51.712Z,72.44
2017-05-12T05:38:32.341Z,72.06
2017-05-12T05:39:12.959Z,71.43
2017-05-12T05:39:53.513Z,71.72
2017-05-12T05:40:34.160Z,71.52
2017-05-12T05:41:14.773Z,70.95
2017-05-12T05:41:55.337Z,70.95
2017-05-12T05:42:35.945Z,71.14
2017-05-12T05:43:16.532Z,71.62
2017-05-12T05:43:57.142Z,71.33
2017-05-12T05:44:37.763Z,71.52
2017-05-12T05:45:18.370Z,71.62
2017-05-12T05:45:58.957Z,70.86
2017-05-12T05:46:39.531Z,70.95
2017-05-12T05:47:20.167Z,71.04
2017-05-12T05:48:00.767Z,71.52
2017-05-12T05:48:41.351Z,72.09
2017-05-12T05:49:21.975Z,72
2017-05-12T05:50:02.591Z,71.72
2017-05-12T05:50:43.256Z,71.04
2017-05-12T05:51:23.839Z,70.28
2017-05-12T05:52:04.421Z,70.57
2017-05-12T05:52:45.003Z,70.19
2017-05-12T05:53:25.612Z,70.67
2017-05-12T05:54:06.201Z,70.38
2017-05-12T05:54:46.793Z,70.28
2017-05-12T05:55:27.388Z,70.38
2017-05-12T05:56:08.000Z,70.19
2017-05-12T05:56:48.570Z,70.19
2017-05-12T05:57:29.243Z,69.9
2017-05-12T05:58:09.854Z,69.9
2017-05-12T05:58:50.430Z,70.19
2017-05-12T05:59:31.018Z,70.19
2017-05-12T06:00:11.615Z,70.22
2017-05-12T06:00:52.210Z,69.84
2017-05-12T06:01:32.839Z,69.46
2017-05-12T06:02:13.402Z,69.37
2017-05-12T06:02:53.989Z,68.88
2017-05-12T06:03:34.618Z,68.88
2017-05-12T06:04:15.223Z,68.98
2017-05-12T06:04:55.806Z,69.46
2017-05-12T06:05:36.391Z,69.37
2017-05-12T06:06:16.983Z,68.88
2017-05-12T06:06:57.626Z,69.08
2017-05-12T06:07:38.213Z,68.79
2017-05-12T06:08:18.810Z,68.88
2017-05-12T06:08:59.401Z,68.88
2017-05-12T06:09:40.009Z,68.88
2017-05-12T06:10:20.601Z,69.08
2017-05-12T06:11:01.240Z,69.08
2017-05-12T06:11:41.865Z,69.11
2017-05-12T06:12:22.500Z,69.68
2017-05-12T06:13:03.077Z,69.21
2017-05-12T06:13:43.659Z,68.35
2017-05-12T06:14:24.279Z,67.77
2017-05-12T06:15:04.855Z,66.85
2017-05-12T06:15:45.485Z,66.47
2017-05-12T06:16:26.061Z,67.52
2017-05-12T06:17:06.624Z,66.85
2017-05-12T06:17:47.245Z,65.9
2017-05-12T06:18:27.826Z,65.42
2017-05-12T06:19:08.400Z,65.52
2017-05-12T06:19:48.987Z,65.14
2017-05-12T06:20:29.581Z,65.14
2017-05-12T06:21:10.197Z,65.33
2017-05-12T06:21:50.755Z,64.85
2017-05-12T06:22:31.333Z,64.88
2017-05-12T06:23:11.927Z,64.31
2017-05-12T06:23:52.591Z,64.22
2017-05-12T06:24:33.160Z,63.96
2017-05-12T06:25:13.782Z,63.1
2017-05-12T06:25:54.386Z,62.14
2017-05-12T06:26:34.991Z,61.57
2017-05-12T06:27:15.574Z,60.33
2017-05-12T06:27:56.155Z,60.74
2017-05-12T06:28:36.760Z,60.74
2017-05-12T06:29:17.403Z,60.45
2017-05-12T06:29:57.981Z,59.52
2017-05-12T06:30:38.568Z,59.14
2017-05-12T06:31:19.182Z,58.56
2017-05-12T06:31:59.768Z,58.18
2017-05-12T06:32:40.385Z,57.51
2017-05-12T06:33:21.005Z,57.92
2017-05-12T06:34:01.606Z,57.35
2017-05-12T06:34:42.228Z,57.16
2017-05-12T06:35:22.798Z,56.87
2017-05-12T06:36:03.438Z,56.04
2017-05-12T06:36:44.063Z,54.89
2017-05-12T06:37:24.694Z,54.89
2017-05-12T06:38:05.313Z,54.79
2017-05-12T06:38:45.900Z,54.89
2017-05-12T06:39:26.563Z,54.32
2017-05-12T06:40:07.146Z,53.83
2017-05-12T06:40:47.797Z,53.36
2017-05-12T06:41:28.387Z,54.12
2017-05-12T06:42:08.957Z,54.12
2017-05-12T06:42:49.554Z,53.45
2017-05-12T06:43:30.169Z,53.55
2017-05-12T06:44:10.769Z,53.93
2017-05-12T06:44:51.370Z,53.93
2017-05-12T06:45:32.027Z,53.64
2017-05-12T06:46:12.638Z,53.26
2017-05-12T06:46:53.236Z,53.55
2017-05-12T06:47:33.846Z,53.93
2017-05-12T06:48:14.433Z,53.26
2017-05-12T06:48:55.062Z,53.64
2017-05-12T06:49:35.851Z,53.36
2017-05-12T06:50:16.433Z,53.64
2017-05-12T06:50:57.025Z,53.26
2017-05-12T06:51:37.605Z,54.12
2017-05-12T06:52:18.213Z,53.93
2017-05-12T06:52:58.801Z,53.55
2017-05-12T06:53:39.377Z,53.36
2017-05-12T06:54:19.995Z,53.74
2017-05-12T06:55:00.588Z,53.28
2017-05-12T06:55:41.176Z,53.16
2017-05-12T06:56:21.773Z,53.36
2017-05-12T06:57:02.360Z,53.19
2017-05-12T06:57:42.951Z,53.09
2017-05-12T06:58:23.542Z,52.59
2017-05-12T06:59:04.145Z,52.87
2017-05-12T06:59:44.744Z,53.09
2017-05-12T07:00:25.354Z,53.16
2017-05-12T07:01:05.941Z,53.07
2017-05-12T07:01:46.563Z,53.36
2017-05-12T07:02:27.151Z,53.19
2017-05-12T07:03:07.735Z,52.97
2017-05-12T07:03:48.318Z,53.55
2017-05-12T07:04:28.889Z,53.64
2017-05-12T07:05:09.476Z,53.26
2017-05-12T07:05:50.077Z,53.16
2017-05-12T07:06:30.686Z,53.19
2017-05-12T07:07:11.279Z,53.38
2017-05-12T07:07:51.874Z,53
2017-05-12T07:08:32.488Z,53.09
2017-05-12T07:09:13.107Z,52.91
2017-05-12T07:09:53.717Z,52.23
2017-05-12T07:10:34.319Z,52.14
2017-05-12T07:11:14.918Z,52.52
2017-05-12T07:11:55.495Z,52.62
2017-05-12T07:12:36.112Z,52.81
2017-05-12T07:13:16.700Z,53.09
2017-05-12T07:13:57.292Z,53.58
2017-05-12T07:14:37.952Z,53.67
2017-05-12T07:15:18.546Z,53.77
2017-05-12T07:15:59.159Z,54.05
2017-05-12T07:16:39.879Z,53.38
2017-05-12T07:17:20.478Z,53.19
2017-05-12T07:18:01.116Z,53.67
2017-05-12T07:18:41.724Z,53.58
2017-05-12T07:19:22.371Z,53.58
2017-05-12T07:20:02.974Z,53.19
2017-05-12T07:20:43.602Z,53
2017-05-12T07:21:24.193Z,53.38
2017-05-12T07:22:04.806Z,53.28
2017-05-12T07:22:45.404Z,53.38
2017-05-12T07:23:26.007Z,52.74
2017-05-12T07:24:06.716Z,53.12
2017-05-12T07:24:47.355Z,53.22
2017-05-12T07:25:28.038Z,52.64
2017-05-12T07:26:08.858Z,52.07
2017-05-12T07:26:49.531Z,51.2
2017-05-12T07:27:30.124Z,52.16
2017-05-12T07:28:10.713Z,52.09
2017-05-12T07:28:51.307Z,52.07
2017-05-12T07:29:31.981Z,52
2017-05-12T07:30:12.612Z,52.38
2017-05-12T07:30:53.507Z,52
2017-05-12T07:31:34.067Z,50.46
2017-05-12T07:32:14.784Z,50.65
2017-05-12T07:32:55.465Z,50.75
2017-05-12T07:33:36.061Z,51.14
2017-05-12T07:34:16.734Z,51.64
2017-05-12T07:34:57.509Z,51.06
2017-05-12T07:35:38.343Z,50.58
2017-05-12T07:36:18.945Z,50.49
2017-05-12T07:36:59.536Z,50.1
2017-05-12T07:37:40.146Z,49.33
2017-05-12T07:38:20.750Z,49.52
2017-05-12T07:39:01.667Z,49.62
2017-05-12T07:39:42.270Z,49.43
2017-05-12T07:40:22.858Z,49.55
2017-05-12T07:41:03.548Z,49.84
2017-05-12T07:41:44.123Z,49.36
2017-05-12T07:42:24.727Z,49.17
2017-05-12T07:43:05.378Z,49.26
2017-05-12T07:43:46.023Z,49.26
2017-05-12T07:44:26.619Z,48.21
2017-05-12T07:45:07.278Z,48.11
2017-05-12T07:45:47.892Z,48.02
2017-05-12T07:46:28.567Z,47.92
2017-05-12T07:47:09.125Z,47.92
2017-05-12T07:47:49.716Z,48.59
2017-05-12T07:48:30.316Z,49.07
2017-05-12T07:49:10.886Z,49.55
2017-05-12T07:49:51.473Z,49.55
2017-05-12T07:50:32.500Z,48.49
2017-05-12T07:51:13.097Z,48.3
2017-05-12T07:51:53.701Z,49.07
2017-05-12T07:52:34.296Z,48.3
2017-05-12T07:53:14.902Z,49.26
2017-05-12T07:53:55.496Z,49.36
2017-05-12T07:54:36.086Z,49.46
2017-05-12T07:55:16.816Z,49.65
2017-05-12T07:55:57.445Z,49.65
2017-05-12T07:56:38.091Z,49.07
2017-05-12T07:57:18.695Z,48.4
2017-05-12T07:57:59.289Z,48.02
2017-05-12T07:58:39.880Z,48.3
2017-05-12T07:59:20.461Z,48.21
2017-05-12T08:00:01.085Z,49.1
2017-05-12T08:00:41.699Z,48.69
2017-05-12T08:01:22.319Z,48.43
2017-05-12T08:02:02.926Z,47.85
2017-05-12T08:02:43.545Z,48.13
2017-05-12T08:03:24.150Z,48.23
2017-05-12T08:04:04.725Z,48.43
2017-05-12T08:04:45.346Z,48.23
2017-05-12T08:05:25.983Z,48.33
2017-05-12T08:06:06.608Z,47.46
2017-05-12T08:06:47.270Z,47.75
2017-05-12T08:07:27.917Z,48.13
2017-05-12T08:08:08.666Z,49
2017-05-12T08:08:49.172Z,48.43
2017-05-12T08:09:29.781Z,47.08
2017-05-12T08:10:10.449Z,47.58
2017-05-12T08:10:51.085Z,47.68
2017-05-12T08:11:31.667Z,47
2017-05-12T08:12:12.256Z,47.68
2017-05-12T08:12:52.953Z,48.25
2017-05-12T08:13:34.187Z,47.68
2017-05-12T08:14:14.860Z,47.39
2017-05-12T08:14:55.438Z,47.58
2017-05-12T08:15:36.049Z,47.2
2017-05-12T08:16:16.660Z,46.81
2017-05-12T08:16:57.238Z,45.66
2017-05-12T08:17:37.840Z,46.89
2017-05-12T08:18:18.450Z,47.87
2017-05-12T08:18:59.066Z,47.1
2017-05-12T08:19:39.680Z,47.68
2017-05-12T08:20:20.305Z,46.62
2017-05-12T08:21:00.890Z,46.81
2017-05-12T08:21:41.675Z,47.1
2017-05-12T08:22:22.266Z,47.1
2017-05-12T08:23:02.856Z,46.81
2017-05-12T08:23:43.437Z,46.43
2017-05-12T08:24:24.059Z,47.1
2017-05-12T08:25:04.969Z,47
2017-05-12T08:25:45.611Z,47.39
2017-05-12T08:26:26.223Z,46.81
2017-05-12T08:27:06.833Z,47.87
2017-05-12T08:27:47.419Z,47.49
2017-05-12T08:28:28.036Z,47.87
2017-05-12T08:29:08.650Z,47.1
2017-05-12T08:29:49.236Z,47
2017-05-12T08:30:29.831Z,46.53
2017-05-12T08:31:10.404Z,47.39
2017-05-12T08:31:51.084Z,47.3
2017-05-12T08:32:31.724Z,47
2017-05-12T08:33:12.393Z,46.62
2017-05-12T08:33:53.073Z,45.56
2017-05-12T08:34:33.889Z,47.3
2017-05-12T08:35:14.485Z,47.3
2017-05-12T08:35:55.096Z,46.62
2017-05-12T08:36:35.749Z,47.1
2017-05-12T08:37:16.681Z,46.33
2017-05-12T08:37:57.266Z,47.2
2017-05-12T08:38:37.875Z,47.87
2017-05-12T08:39:18.497Z,46.91
2017-05-12T08:39:59.076Z,47.39
2017-05-12T08:40:39.664Z,47.68
2017-05-12T08:41:20.354Z,47.58
2017-05-12T08:42:01.017Z,47.77
2017-05-12T08:42:41.665Z,47.3
2017-05-12T08:43:22.281Z,47.68
2017-05-12T08:44:02.870Z,47.1
2017-05-12T08:44:43.455Z,46.81